sensor_id;sensor_type;location;lat;lon;timestamp;P1;durP1;ratioP1;P2;durP2;ratioP2
38529;SDS011;24301;54.332;48.386;2023-05-07T00:00:47;1.83;;;1.63;;
38529;SDS011;24301;54.332;48.386;2023-05-07T00:03:16;1.97;;;1.37;;
38529;SDS011;24301;54.332;48.386;2023-05-07T00:05:42;1.80;;;1.67;;
38529;SDS011;24301;54.332;48.386;2023-05-07T00:08:08;2.03;;;1.80;;
38529;SDS011;24301;54.332;48.386;2023-05-07T00:10:37;2.40;;;2.00;;
38529;SDS011;24301;54.332;48.386;2023-05-07T00:13:03;2.20;;;1.77;;
38529;SDS011;24301;54.332;48.386;2023-05-07T00:15:29;3.13;;;1.97;;
38529;SDS011;24301;54.332;48.386;2023-05-07T00:17:55;1.90;;;1.70;;
38529;SDS011;24301;54.332;48.386;2023-05-07T00:20:21;6.40;;;2.10;;
38529;SDS011;24301;54.332;48.386;2023-05-07T00:22:47;2.30;;;1.83;;
38529;SDS011;24301;54.332;48.386;2023-05-07T00:25:13;8.43;;;2.37;;
38529;SDS011;24301;54.332;48.386;2023-05-07T00:27:39;3.53;;;2.03;;
38529;SDS011;24301;54.332;48.386;2023-05-07T00:30:06;4.17;;;2.10;;
38529;SDS011;24301;54.332;48.386;2023-05-07T00:32:35;3.63;;;2.07;;
38529;SDS011;24301;54.332;48.386;2023-05-07T00:35:02;3.37;;;2.33;;
38529;SDS011;24301;54.332;48.386;2023-05-07T00:37:29;3.30;;;2.20;;
38529;SDS011;24301;54.332;48.386;2023-05-07T00:39:55;2.63;;;1.63;;
38529;SDS011;24301;54.332;48.386;2023-05-07T00:42:21;4.37;;;1.90;;
38529;SDS011;24301;54.332;48.386;2023-05-07T00:44:47;3.67;;;1.70;;
38529;SDS011;24301;54.332;48.386;2023-05-07T00:47:13;2.50;;;1.80;;
38529;SDS011;24301;54.332;48.386;2023-05-07T00:49:43;2.37;;;1.60;;
38529;SDS011;24301;54.332;48.386;2023-05-07T00:52:11;2.80;;;2.00;;
38529;SDS011;24301;54.332;48.386;2023-05-07T00:54:38;2.93;;;2.00;;
38529;SDS011;24301;54.332;48.386;2023-05-07T00:57:06;2.10;;;1.80;;
38529;SDS011;24301;54.332;48.386;2023-05-07T00:59:34;2.90;;;1.80;;
38529;SDS011;24301;54.332;48.386;2023-05-07T01:02:00;4.50;;;2.20;;
38529;SDS011;24301;54.332;48.386;2023-05-07T01:04:26;5.67;;;2.57;;
38529;SDS011;24301;54.332;48.386;2023-05-07T01:06:53;1.70;;;1.43;;
38529;SDS011;24301;54.332;48.386;2023-05-07T01:09:25;3.37;;;2.20;;
38529;SDS011;24301;54.332;48.386;2023-05-07T01:11:52;5.07;;;2.47;;
38529;SDS011;24301;54.332;48.386;2023-05-07T01:14:20;3.93;;;2.50;;
38529;SDS011;24301;54.332;48.386;2023-05-07T01:16:47;4.07;;;2.47;;
38529;SDS011;24301;54.332;48.386;2023-05-07T01:19:14;4.37;;;2.97;;
38529;SDS011;24301;54.332;48.386;2023-05-07T01:21:46;5.13;;;2.40;;
38529;SDS011;24301;54.332;48.386;2023-05-07T01:24:17;3.70;;;2.40;;
38529;SDS011;24301;54.332;48.386;2023-05-07T01:26:44;3.07;;;2.43;;
38529;SDS011;24301;54.332;48.386;2023-05-07T01:29:13;3.50;;;2.43;;
38529;SDS011;24301;54.332;48.386;2023-05-07T01:31:40;5.17;;;2.40;;
38529;SDS011;24301;54.332;48.386;2023-05-07T01:34:08;4.23;;;2.80;;
38529;SDS011;24301;54.332;48.386;2023-05-07T01:36:37;4.40;;;1.90;;
38529;SDS011;24301;54.332;48.386;2023-05-07T01:39:06;3.03;;;2.00;;
38529;SDS011;24301;54.332;48.386;2023-05-07T01:41:34;3.47;;;2.57;;
38529;SDS011;24301;54.332;48.386;2023-05-07T01:44:01;4.53;;;2.53;;
38529;SDS011;24301;54.332;48.386;2023-05-07T01:46:28;4.20;;;2.23;;
38529;SDS011;24301;54.332;48.386;2023-05-07T01:48:56;3.77;;;2.07;;
38529;SDS011;24301;54.332;48.386;2023-05-07T01:51:22;4.17;;;1.87;;
38529;SDS011;24301;54.332;48.386;2023-05-07T01:53:48;4.27;;;2.30;;
38529;SDS011;24301;54.332;48.386;2023-05-07T01:56:18;3.83;;;1.93;;
38529;SDS011;24301;54.332;48.386;2023-05-07T01:58:45;11.70;;;2.23;;
38529;SDS011;24301;54.332;48.386;2023-05-07T02:01:14;3.10;;;1.80;;
38529;SDS011;24301;54.332;48.386;2023-05-07T02:03:41;2.97;;;2.13;;
38529;SDS011;24301;54.332;48.386;2023-05-07T02:06:14;2.97;;;1.90;;
38529;SDS011;24301;54.332;48.386;2023-05-07T02:08:40;3.23;;;2.23;;
38529;SDS011;24301;54.332;48.386;2023-05-07T02:11:07;2.50;;;1.63;;
38529;SDS011;24301;54.332;48.386;2023-05-07T02:13:35;4.00;;;1.50;;
38529;SDS011;24301;54.332;48.386;2023-05-07T02:16:03;1.95;;;1.17;;
38529;SDS011;24301;54.332;48.386;2023-05-07T02:18:29;2.67;;;1.25;;
38529;SDS011;24301;54.332;48.386;2023-05-07T02:20:55;1.83;;;1.48;;
38529;SDS011;24301;54.332;48.386;2023-05-07T02:23:21;1.95;;;1.20;;
38529;SDS011;24301;54.332;48.386;2023-05-07T02:25:47;1.50;;;1.17;;
38529;SDS011;24301;54.332;48.386;2023-05-07T02:28:13;4.15;;;1.13;;
38529;SDS011;24301;54.332;48.386;2023-05-07T02:31:02;1.35;;;1.25;;
38529;SDS011;24301;54.332;48.386;2023-05-07T02:33:32;1.45;;;1.00;;
38529;SDS011;24301;54.332;48.386;2023-05-07T02:36:08;2.25;;;1.52;;
38529;SDS011;24301;54.332;48.386;2023-05-07T02:38:40;4.80;;;1.60;;
38529;SDS011;24301;54.332;48.386;2023-05-07T02:41:06;1.52;;;1.02;;
38529;SDS011;24301;54.332;48.386;2023-05-07T02:43:32;2.67;;;1.20;;
38529;SDS011;24301;54.332;48.386;2023-05-07T02:46:05;1.60;;;1.40;;
38529;SDS011;24301;54.332;48.386;2023-05-07T02:48:35;4.10;;;1.35;;
38529;SDS011;24301;54.332;48.386;2023-05-07T02:51:01;3.50;;;1.65;;
38529;SDS011;24301;54.332;48.386;2023-05-07T02:53:28;2.35;;;1.23;;
38529;SDS011;24301;54.332;48.386;2023-05-07T02:55:55;4.90;;;1.30;;
38529;SDS011;24301;54.332;48.386;2023-05-07T02:58:22;3.05;;;1.20;;
38529;SDS011;24301;54.332;48.386;2023-05-07T03:00:48;3.13;;;1.48;;
38529;SDS011;24301;54.332;48.386;2023-05-07T03:03:41;2.05;;;1.42;;
38529;SDS011;24301;54.332;48.386;2023-05-07T03:06:07;1.20;;;1.10;;
38529;SDS011;24301;54.332;48.386;2023-05-07T03:08:33;1.75;;;1.30;;
38529;SDS011;24301;54.332;48.386;2023-05-07T03:10:58;3.85;;;1.00;;
38529;SDS011;24301;54.332;48.386;2023-05-07T03:13:24;2.00;;;0.95;;
38529;SDS011;24301;54.332;48.386;2023-05-07T03:15:51;2.35;;;1.00;;
38529;SDS011;24301;54.332;48.386;2023-05-07T03:18:17;0.90;;;0.68;;
38529;SDS011;24301;54.332;48.386;2023-05-07T03:20:43;2.05;;;0.93;;
38529;SDS011;24301;54.332;48.386;2023-05-07T03:23:09;3.00;;;1.00;;
38529;SDS011;24301;54.332;48.386;2023-05-07T03:25:35;3.30;;;1.08;;
38529;SDS011;24301;54.332;48.386;2023-05-07T03:28:01;0.98;;;0.80;;
38529;SDS011;24301;54.332;48.386;2023-05-07T03:30:36;2.55;;;1.10;;
38529;SDS011;24301;54.332;48.386;2023-05-07T03:33:02;1.83;;;1.15;;
38529;SDS011;24301;54.332;48.386;2023-05-07T03:35:28;1.60;;;1.10;;
38529;SDS011;24301;54.332;48.386;2023-05-07T03:37:53;2.25;;;1.10;;
38529;SDS011;24301;54.332;48.386;2023-05-07T03:40:21;1.20;;;0.95;;
38529;SDS011;24301;54.332;48.386;2023-05-07T03:42:50;4.45;;;1.20;;
38529;SDS011;24301;54.332;48.386;2023-05-07T03:45:19;4.60;;;2.95;;
38529;SDS011;24301;54.332;48.386;2023-05-07T03:47:51;3.57;;;1.77;;
38529;SDS011;24301;54.332;48.386;2023-05-07T03:50:19;2.80;;;1.10;;
38529;SDS011;24301;54.332;48.386;2023-05-07T03:52:45;1.20;;;1.10;;
38529;SDS011;24301;54.332;48.386;2023-05-07T03:55:12;0.80;;;0.80;;
38529;SDS011;24301;54.332;48.386;2023-05-07T03:57:43;1.33;;;0.80;;
38529;SDS011;24301;54.332;48.386;2023-05-07T04:00:09;0.93;;;0.80;;
38529;SDS011;24301;54.332;48.386;2023-05-07T04:02:46;2.95;;;0.90;;
38529;SDS011;24301;54.332;48.386;2023-05-07T04:05:14;0.95;;;0.77;;
38529;SDS011;24301;54.332;48.386;2023-05-07T04:07:42;3.38;;;1.15;;
38529;SDS011;24301;54.332;48.386;2023-05-07T04:10:10;0.95;;;0.75;;
38529;SDS011;24301;54.332;48.386;2023-05-07T04:12:39;4.80;;;1.02;;
38529;SDS011;24301;54.332;48.386;2023-05-07T04:15:06;1.17;;;1.05;;
38529;SDS011;24301;54.332;48.386;2023-05-07T04:17:34;1.20;;;0.90;;
38529;SDS011;24301;54.332;48.386;2023-05-07T04:20:00;1.30;;;0.98;;
38529;SDS011;24301;54.332;48.386;2023-05-07T04:22:29;1.15;;;0.80;;
38529;SDS011;24301;54.332;48.386;2023-05-07T04:24:55;3.05;;;1.17;;
38529;SDS011;24301;54.332;48.386;2023-05-07T04:27:22;1.20;;;0.73;;
38529;SDS011;24301;54.332;48.386;2023-05-07T04:29:48;2.33;;;0.95;;
38529;SDS011;24301;54.332;48.386;2023-05-07T04:32:15;1.95;;;0.90;;
38529;SDS011;24301;54.332;48.386;2023-05-07T04:34:42;3.58;;;1.20;;
38529;SDS011;24301;54.332;48.386;2023-05-07T04:37:08;1.58;;;0.77;;
38529;SDS011;24301;54.332;48.386;2023-05-07T04:39:34;4.10;;;1.70;;
38529;SDS011;24301;54.332;48.386;2023-05-07T04:42:01;2.45;;;1.15;;
38529;SDS011;24301;54.332;48.386;2023-05-07T04:44:28;3.67;;;1.20;;
38529;SDS011;24301;54.332;48.386;2023-05-07T04:46:56;3.70;;;1.23;;
38529;SDS011;24301;54.332;48.386;2023-05-07T04:49:23;3.95;;;1.05;;
38529;SDS011;24301;54.332;48.386;2023-05-07T04:51:54;3.33;;;1.02;;
38529;SDS011;24301;54.332;48.386;2023-05-07T04:54:22;1.05;;;0.90;;
38529;SDS011;24301;54.332;48.386;2023-05-07T04:56:48;2.63;;;0.98;;
38529;SDS011;24301;54.332;48.386;2023-05-07T04:59:14;3.40;;;1.30;;
38529;SDS011;24301;54.332;48.386;2023-05-07T05:01:43;2.00;;;1.23;;
38529;SDS011;24301;54.332;48.386;2023-05-07T05:04:11;1.33;;;1.20;;
38529;SDS011;24301;54.332;48.386;2023-05-07T05:06:37;2.75;;;1.30;;
38529;SDS011;24301;54.332;48.386;2023-05-07T05:09:04;1.67;;;1.30;;
38529;SDS011;24301;54.332;48.386;2023-05-07T05:11:32;2.50;;;1.27;;
38529;SDS011;24301;54.332;48.386;2023-05-07T05:13:59;5.93;;;1.58;;
38529;SDS011;24301;54.332;48.386;2023-05-07T05:16:26;3.45;;;2.00;;
38529;SDS011;24301;54.332;48.386;2023-05-07T05:18:52;2.10;;;1.80;;
38529;SDS011;24301;54.332;48.386;2023-05-07T05:21:20;1.42;;;1.30;;
38529;SDS011;24301;54.332;48.386;2023-05-07T05:23:49;2.10;;;1.20;;
38529;SDS011;24301;54.332;48.386;2023-05-07T05:26:19;3.38;;;1.38;;
38529;SDS011;24301;54.332;48.386;2023-05-07T05:28:47;3.00;;;1.50;;
38529;SDS011;24301;54.332;48.386;2023-05-07T05:31:14;3.30;;;1.30;;
38529;SDS011;24301;54.332;48.386;2023-05-07T05:33:41;1.83;;;1.38;;
38529;SDS011;24301;54.332;48.386;2023-05-07T05:36:10;1.35;;;1.17;;
38529;SDS011;24301;54.332;48.386;2023-05-07T05:38:38;2.38;;;1.50;;
38529;SDS011;24301;54.332;48.386;2023-05-07T05:41:06;3.30;;;1.60;;
38529;SDS011;24301;54.332;48.386;2023-05-07T05:43:31;3.88;;;1.90;;
38529;SDS011;24301;54.332;48.386;2023-05-07T05:45:58;2.55;;;1.20;;
38529;SDS011;24301;54.332;48.386;2023-05-07T05:49:02;3.03;;;1.60;;
38529;SDS011;24301;54.332;48.386;2023-05-07T05:51:28;4.05;;;1.20;;
38529;SDS011;24301;54.332;48.386;2023-05-07T05:53:54;1.80;;;1.20;;
38529;SDS011;24301;54.332;48.386;2023-05-07T05:56:20;1.63;;;1.25;;
38529;SDS011;24301;54.332;48.386;2023-05-07T05:58:46;2.83;;;1.35;;
38529;SDS011;24301;54.332;48.386;2023-05-07T06:01:13;1.95;;;1.10;;
38529;SDS011;24301;54.332;48.386;2023-05-07T06:03:39;1.83;;;1.20;;
38529;SDS011;24301;54.332;48.386;2023-05-07T06:06:11;1.63;;;1.25;;
38529;SDS011;24301;54.332;48.386;2023-05-07T06:08:37;2.28;;;1.60;;
38529;SDS011;24301;54.332;48.386;2023-05-07T06:11:03;2.42;;;1.55;;
38529;SDS011;24301;54.332;48.386;2023-05-07T06:13:32;3.40;;;1.48;;
38529;SDS011;24301;54.332;48.386;2023-05-07T06:15:58;2.83;;;1.67;;
38529;SDS011;24301;54.332;48.386;2023-05-07T06:18:28;4.40;;;1.40;;
38529;SDS011;24301;54.332;48.386;2023-05-07T06:20:55;3.72;;;1.42;;
38529;SDS011;24301;54.332;48.386;2023-05-07T06:23:27;7.47;;;1.92;;
38529;SDS011;24301;54.332;48.386;2023-05-07T06:28:32;5.88;;;1.80;;
38529;SDS011;24301;54.332;48.386;2023-05-07T06:33:45;5.43;;;1.20;;
38529;SDS011;24301;54.332;48.386;2023-05-07T06:36:12;3.35;;;1.00;;
38529;SDS011;24301;54.332;48.386;2023-05-07T06:38:38;1.15;;;0.90;;
38529;SDS011;24301;54.332;48.386;2023-05-07T06:41:05;2.00;;;1.25;;
38529;SDS011;24301;54.332;48.386;2023-05-07T06:43:31;3.40;;;1.20;;
38529;SDS011;24301;54.332;48.386;2023-05-07T06:46:23;3.80;;;1.55;;
38529;SDS011;24301;54.332;48.386;2023-05-07T06:48:49;1.38;;;0.80;;
38529;SDS011;24301;54.332;48.386;2023-05-07T06:58:00;2.35;;;1.15;;
38529;SDS011;24301;54.332;48.386;2023-05-07T07:00:27;2.00;;;1.25;;
38529;SDS011;24301;54.332;48.386;2023-05-07T07:02:55;2.83;;;1.10;;
38529;SDS011;24301;54.332;48.386;2023-05-07T07:05:24;1.40;;;1.08;;
38529;SDS011;24301;54.332;48.386;2023-05-07T07:07:50;6.22;;;1.42;;
38529;SDS011;24301;54.332;48.386;2023-05-07T07:10:19;3.38;;;0.98;;
38529;SDS011;24301;54.332;48.386;2023-05-07T07:12:46;4.43;;;1.25;;
38529;SDS011;24301;54.332;48.386;2023-05-07T07:15:15;2.55;;;1.00;;
38529;SDS011;24301;54.332;48.386;2023-05-07T07:17:42;2.33;;;1.30;;
38529;SDS011;24301;54.332;48.386;2023-05-07T07:20:08;7.35;;;1.15;;
38529;SDS011;24301;54.332;48.386;2023-05-07T07:22:35;1.65;;;0.95;;
38529;SDS011;24301;54.332;48.386;2023-05-07T07:25:02;3.78;;;1.13;;
38529;SDS011;24301;54.332;48.386;2023-05-07T07:27:29;4.05;;;1.13;;
38529;SDS011;24301;54.332;48.386;2023-05-07T07:29:55;2.15;;;0.80;;
38529;SDS011;24301;54.332;48.386;2023-05-07T07:32:21;1.00;;;0.82;;
38529;SDS011;24301;54.332;48.386;2023-05-07T07:34:47;1.70;;;0.90;;
38529;SDS011;24301;54.332;48.386;2023-05-07T07:37:13;0.77;;;0.77;;
38529;SDS011;24301;54.332;48.386;2023-05-07T07:39:40;2.60;;;1.13;;
38529;SDS011;24301;54.332;48.386;2023-05-07T07:42:07;2.33;;;1.15;;
38529;SDS011;24301;54.332;48.386;2023-05-07T07:44:33;1.95;;;1.27;;
38529;SDS011;24301;54.332;48.386;2023-05-07T07:47:05;3.00;;;1.50;;
38529;SDS011;24301;54.332;48.386;2023-05-07T07:49:31;2.40;;;0.95;;
38529;SDS011;24301;54.332;48.386;2023-05-07T07:52:01;1.45;;;1.23;;
38529;SDS011;24301;54.332;48.386;2023-05-07T07:54:28;4.03;;;0.90;;
38529;SDS011;24301;54.332;48.386;2023-05-07T07:56:55;1.10;;;0.85;;
38529;SDS011;24301;54.332;48.386;2023-05-07T07:59:21;2.97;;;1.02;;
38529;SDS011;24301;54.332;48.386;2023-05-07T08:01:49;3.47;;;1.10;;
38529;SDS011;24301;54.332;48.386;2023-05-07T08:04:16;2.88;;;1.52;;
38529;SDS011;24301;54.332;48.386;2023-05-07T08:06:43;2.70;;;1.10;;
38529;SDS011;24301;54.332;48.386;2023-05-07T08:09:10;1.38;;;1.00;;
38529;SDS011;24301;54.332;48.386;2023-05-07T08:11:38;1.23;;;1.10;;
38529;SDS011;24301;54.332;48.386;2023-05-07T08:14:05;2.08;;;1.23;;
38529;SDS011;24301;54.332;48.386;2023-05-07T08:16:31;1.75;;;0.88;;
38529;SDS011;24301;54.332;48.386;2023-05-07T08:18:58;1.88;;;1.00;;
38529;SDS011;24301;54.332;48.386;2023-05-07T08:21:25;1.10;;;1.00;;
38529;SDS011;24301;54.332;48.386;2023-05-07T08:23:51;2.50;;;1.40;;
38529;SDS011;24301;54.332;48.386;2023-05-07T08:26:17;1.38;;;1.08;;
38529;SDS011;24301;54.332;48.386;2023-05-07T08:28:44;3.55;;;1.27;;
38529;SDS011;24301;54.332;48.386;2023-05-07T08:31:10;2.08;;;1.30;;
38529;SDS011;24301;54.332;48.386;2023-05-07T08:33:38;2.28;;;0.95;;
38529;SDS011;24301;54.332;48.386;2023-05-07T08:36:04;1.98;;;0.90;;
38529;SDS011;24301;54.332;48.386;2023-05-07T08:38:31;1.13;;;1.02;;
38529;SDS011;24301;54.332;48.386;2023-05-07T08:40:57;3.22;;;1.95;;
38529;SDS011;24301;54.332;48.386;2023-05-07T08:43:26;3.35;;;1.77;;
38529;SDS011;24301;54.332;48.386;2023-05-07T08:45:53;2.95;;;1.80;;
38529;SDS011;24301;54.332;48.386;2023-05-07T08:48:26;3.22;;;1.90;;
38529;SDS011;24301;54.332;48.386;2023-05-07T08:51:03;3.25;;;1.42;;
38529;SDS011;24301;54.332;48.386;2023-05-07T08:53:30;1.98;;;1.42;;
38529;SDS011;24301;54.332;48.386;2023-05-07T08:55:56;1.65;;;1.35;;
38529;SDS011;24301;54.332;48.386;2023-05-07T08:58:22;3.08;;;1.50;;
38529;SDS011;24301;54.332;48.386;2023-05-07T09:00:49;3.90;;;1.80;;
38529;SDS011;24301;54.332;48.386;2023-05-07T09:03:19;4.45;;;1.55;;
38529;SDS011;24301;54.332;48.386;2023-05-07T09:05:48;2.65;;;1.60;;
38529;SDS011;24301;54.332;48.386;2023-05-07T09:08:16;1.60;;;1.30;;
38529;SDS011;24301;54.332;48.386;2023-05-07T09:10:44;1.45;;;1.15;;
38529;SDS011;24301;54.332;48.386;2023-05-07T09:13:10;4.70;;;1.45;;
38529;SDS011;24301;54.332;48.386;2023-05-07T09:15:39;2.58;;;1.33;;
38529;SDS011;24301;54.332;48.386;2023-05-07T09:18:06;1.10;;;1.00;;
38529;SDS011;24301;54.332;48.386;2023-05-07T09:20:33;1.55;;;1.10;;
38529;SDS011;24301;54.332;48.386;2023-05-07T09:23:02;1.83;;;1.23;;
38529;SDS011;24301;54.332;48.386;2023-05-07T09:25:29;1.80;;;1.30;;
38529;SDS011;24301;54.332;48.386;2023-05-07T09:27:59;1.70;;;1.30;;
38529;SDS011;24301;54.332;48.386;2023-05-07T09:30:30;2.92;;;1.23;;
38529;SDS011;24301;54.332;48.386;2023-05-07T09:32:59;6.70;;;2.50;;
38529;SDS011;24301;54.332;48.386;2023-05-07T09:35:26;4.72;;;1.70;;
38529;SDS011;24301;54.332;48.386;2023-05-07T09:38:00;2.78;;;1.40;;
38529;SDS011;24301;54.332;48.386;2023-05-07T09:40:28;1.85;;;1.10;;
38529;SDS011;24301;54.332;48.386;2023-05-07T09:43:09;1.20;;;1.08;;
38529;SDS011;24301;54.332;48.386;2023-05-07T09:45:39;4.72;;;1.70;;
38529;SDS011;24301;54.332;48.386;2023-05-07T09:48:07;3.28;;;2.13;;
38529;SDS011;24301;54.332;48.386;2023-05-07T09:53:30;1.95;;;1.20;;
38529;SDS011;24301;54.332;48.386;2023-05-07T09:56:05;2.80;;;1.77;;
38529;SDS011;24301;54.332;48.386;2023-05-07T09:58:31;2.70;;;1.30;;
38529;SDS011;24301;54.332;48.386;2023-05-07T10:03:31;1.67;;;1.33;;
38529;SDS011;24301;54.332;48.386;2023-05-07T10:06:03;3.33;;;1.80;;
38529;SDS011;24301;54.332;48.386;2023-05-07T10:08:34;2.00;;;1.25;;
38529;SDS011;24301;54.332;48.386;2023-05-07T10:11:03;3.42;;;1.67;;
38529;SDS011;24301;54.332;48.386;2023-05-07T10:13:37;4.45;;;1.63;;
38529;SDS011;24301;54.332;48.386;2023-05-07T10:16:06;1.27;;;1.15;;
38529;SDS011;24301;54.332;48.386;2023-05-07T10:18:40;2.95;;;1.42;;
38529;SDS011;24301;54.332;48.386;2023-05-07T10:21:18;4.78;;;1.40;;
38529;SDS011;24301;54.332;48.386;2023-05-07T10:23:51;5.47;;;2.38;;
38529;SDS011;24301;54.332;48.386;2023-05-07T10:26:25;3.97;;;2.25;;
38529;SDS011;24301;54.332;48.386;2023-05-07T10:29:03;2.28;;;1.88;;
38529;SDS011;24301;54.332;48.386;2023-05-07T10:34:20;4.47;;;1.80;;
38529;SDS011;24301;54.332;48.386;2023-05-07T10:36:50;1.98;;;1.30;;
38529;SDS011;24301;54.332;48.386;2023-05-07T10:39:19;2.88;;;1.33;;
38529;SDS011;24301;54.332;48.386;2023-05-07T10:41:50;1.90;;;1.70;;
38529;SDS011;24301;54.332;48.386;2023-05-07T10:44:27;2.72;;;1.60;;
38529;SDS011;24301;54.332;48.386;2023-05-07T10:47:04;3.55;;;1.92;;
38529;SDS011;24301;54.332;48.386;2023-05-07T10:50:21;3.92;;;2.20;;
38529;SDS011;24301;54.332;48.386;2023-05-07T10:52:32;3.65;;;1.67;;
38529;SDS011;24301;54.332;48.386;2023-05-07T10:58:23;5.63;;;3.00;;
38529;SDS011;24301;54.332;48.386;2023-05-07T11:01:01;7.95;;;4.43;;
38529;SDS011;24301;54.332;48.386;2023-05-07T11:03:33;5.78;;;2.40;;
38529;SDS011;24301;54.332;48.386;2023-05-07T11:06:14;2.78;;;2.03;;
38529;SDS011;24301;54.332;48.386;2023-05-07T11:08:55;2.97;;;1.73;;
38529;SDS011;24301;54.332;48.386;2023-05-07T11:11:45;3.90;;;2.22;;
38529;SDS011;24301;54.332;48.386;2023-05-07T11:17:10;4.47;;;2.08;;
38529;SDS011;24301;54.332;48.386;2023-05-07T11:19:54;2.40;;;1.60;;
38529;SDS011;24301;54.332;48.386;2023-05-07T11:22:41;2.92;;;1.52;;
38529;SDS011;24301;54.332;48.386;2023-05-07T11:25:19;3.13;;;1.30;;
38529;SDS011;24301;54.332;48.386;2023-05-07T11:27:50;2.95;;;1.20;;
38529;SDS011;24301;54.332;48.386;2023-05-07T11:30:17;3.45;;;1.88;;
38529;SDS011;24301;54.332;48.386;2023-05-07T11:32:44;2.38;;;1.50;;
38529;SDS011;24301;54.332;48.386;2023-05-07T11:35:13;3.13;;;1.30;;
38529;SDS011;24301;54.332;48.386;2023-05-07T11:37:41;3.85;;;1.35;;
38529;SDS011;24301;54.332;48.386;2023-05-07T11:40:08;4.22;;;1.23;;
38529;SDS011;24301;54.332;48.386;2023-05-07T11:42:37;1.70;;;1.50;;
38529;SDS011;24301;54.332;48.386;2023-05-07T11:45:05;5.30;;;1.65;;
38529;SDS011;24301;54.332;48.386;2023-05-07T11:47:33;5.47;;;2.33;;
38529;SDS011;24301;54.332;48.386;2023-05-07T11:50:03;3.70;;;1.70;;
38529;SDS011;24301;54.332;48.386;2023-05-07T11:52:33;4.15;;;1.52;;
38529;SDS011;24301;54.332;48.386;2023-05-07T11:55:01;2.55;;;2.05;;
38529;SDS011;24301;54.332;48.386;2023-05-07T11:57:32;2.83;;;1.65;;
38529;SDS011;24301;54.332;48.386;2023-05-07T11:59:59;3.72;;;1.58;;
38529;SDS011;24301;54.332;48.386;2023-05-07T12:02:33;3.47;;;1.50;;
38529;SDS011;24301;54.332;48.386;2023-05-07T12:05:00;3.05;;;1.75;;
38529;SDS011;24301;54.332;48.386;2023-05-07T12:07:32;5.93;;;3.08;;
38529;SDS011;24301;54.332;48.386;2023-05-07T12:10:04;3.90;;;2.33;;
38529;SDS011;24301;54.332;48.386;2023-05-07T12:12:40;1.90;;;1.30;;
38529;SDS011;24301;54.332;48.386;2023-05-07T12:15:15;5.50;;;1.48;;
38529;SDS011;24301;54.332;48.386;2023-05-07T12:17:42;3.90;;;1.83;;
38529;SDS011;24301;54.332;48.386;2023-05-07T12:20:12;1.30;;;1.20;;
38529;SDS011;24301;54.332;48.386;2023-05-07T12:22:45;2.42;;;1.45;;
38529;SDS011;24301;54.332;48.386;2023-05-07T12:25:12;2.10;;;1.40;;
38529;SDS011;24301;54.332;48.386;2023-05-07T12:27:44;3.40;;;1.30;;
38529;SDS011;24301;54.332;48.386;2023-05-07T12:30:16;4.05;;;1.35;;
38529;SDS011;24301;54.332;48.386;2023-05-07T12:32:44;3.28;;;1.30;;
38529;SDS011;24301;54.332;48.386;2023-05-07T12:35:11;5.22;;;1.40;;
38529;SDS011;24301;54.332;48.386;2023-05-07T12:37:36;4.32;;;1.45;;
38529;SDS011;24301;54.332;48.386;2023-05-07T12:40:03;3.53;;;1.55;;
38529;SDS011;24301;54.332;48.386;2023-05-07T12:42:35;3.97;;;1.70;;
38529;SDS011;24301;54.332;48.386;2023-05-07T12:45:11;2.97;;;1.63;;
38529;SDS011;24301;54.332;48.386;2023-05-07T12:47:38;3.70;;;2.22;;
38529;SDS011;24301;54.332;48.386;2023-05-07T12:50:05;5.13;;;1.77;;
38529;SDS011;24301;54.332;48.386;2023-05-07T12:52:32;2.78;;;1.60;;
38529;SDS011;24301;54.332;48.386;2023-05-07T12:55:04;1.42;;;1.10;;
38529;SDS011;24301;54.332;48.386;2023-05-07T12:57:37;2.80;;;1.73;;
38529;SDS011;24301;54.332;48.386;2023-05-07T13:00:05;2.30;;;1.60;;
38529;SDS011;24301;54.332;48.386;2023-05-07T13:02:32;3.08;;;1.77;;
38529;SDS011;24301;54.332;48.386;2023-05-07T13:04:59;2.97;;;2.10;;
38529;SDS011;24301;54.332;48.386;2023-05-07T13:07:25;3.58;;;1.75;;
38529;SDS011;24301;54.332;48.386;2023-05-07T13:09:51;2.88;;;1.88;;
38529;SDS011;24301;54.332;48.386;2023-05-07T13:12:17;2.83;;;1.90;;
38529;SDS011;24301;54.332;48.386;2023-05-07T13:14:43;2.10;;;1.70;;
38529;SDS011;24301;54.332;48.386;2023-05-07T13:17:09;4.40;;;1.70;;
38529;SDS011;24301;54.332;48.386;2023-05-07T13:19:35;3.80;;;2.20;;
38529;SDS011;24301;54.332;48.386;2023-05-07T13:22:03;4.35;;;1.77;;
38529;SDS011;24301;54.332;48.386;2023-05-07T13:24:29;4.18;;;1.90;;
38529;SDS011;24301;54.332;48.386;2023-05-07T13:26:55;4.00;;;1.80;;
38529;SDS011;24301;54.332;48.386;2023-05-07T13:29:21;1.77;;;1.35;;
38529;SDS011;24301;54.332;48.386;2023-05-07T13:31:54;4.10;;;1.33;;
38529;SDS011;24301;54.332;48.386;2023-05-07T13:34:20;2.90;;;1.33;;
38529;SDS011;24301;54.332;48.386;2023-05-07T13:36:46;2.40;;;1.25;;
38529;SDS011;24301;54.332;48.386;2023-05-07T13:39:12;2.38;;;1.80;;
38529;SDS011;24301;54.332;48.386;2023-05-07T13:41:38;4.68;;;1.98;;
38529;SDS011;24301;54.332;48.386;2023-05-07T13:44:03;2.95;;;2.03;;
38529;SDS011;24301;54.332;48.386;2023-05-07T13:46:30;5.13;;;2.15;;
38529;SDS011;24301;54.332;48.386;2023-05-07T13:48:56;4.20;;;2.10;;
38529;SDS011;24301;54.332;48.386;2023-05-07T13:51:22;4.25;;;2.20;;
38529;SDS011;24301;54.332;48.386;2023-05-07T13:53:48;4.35;;;2.08;;
38529;SDS011;24301;54.332;48.386;2023-05-07T13:56:14;4.22;;;2.05;;
38529;SDS011;24301;54.332;48.386;2023-05-07T13:58:40;2.15;;;1.35;;
38529;SDS011;24301;54.332;48.386;2023-05-07T14:01:06;3.63;;;1.50;;
38529;SDS011;24301;54.332;48.386;2023-05-07T14:03:32;1.23;;;1.00;;
38529;SDS011;24301;54.332;48.386;2023-05-07T14:05:59;1.38;;;0.98;;
38529;SDS011;24301;54.332;48.386;2023-05-07T14:08:27;1.08;;;0.95;;
38529;SDS011;24301;54.332;48.386;2023-05-07T14:10:53;1.45;;;1.20;;
38529;SDS011;24301;54.332;48.386;2023-05-07T14:13:19;2.88;;;1.20;;
38529;SDS011;24301;54.332;48.386;2023-05-07T14:15:45;3.08;;;1.48;;
38529;SDS011;24301;54.332;48.386;2023-05-07T14:18:15;3.35;;;1.60;;
38529;SDS011;24301;54.332;48.386;2023-05-07T14:20:41;2.10;;;1.27;;
38529;SDS011;24301;54.332;48.386;2023-05-07T14:23:12;3.93;;;1.40;;
38529;SDS011;24301;54.332;48.386;2023-05-07T14:25:38;2.17;;;1.10;;
38529;SDS011;24301;54.332;48.386;2023-05-07T14:28:04;6.05;;;1.52;;
38529;SDS011;24301;54.332;48.386;2023-05-07T14:30:30;1.33;;;1.20;;
38529;SDS011;24301;54.332;48.386;2023-05-07T14:32:56;3.05;;;1.48;;
38529;SDS011;24301;54.332;48.386;2023-05-07T14:35:22;1.45;;;1.10;;
38529;SDS011;24301;54.332;48.386;2023-05-07T14:37:48;4.40;;;1.00;;
38529;SDS011;24301;54.332;48.386;2023-05-07T14:40:13;3.63;;;0.82;;
38529;SDS011;24301;54.332;48.386;2023-05-07T14:42:41;4.45;;;1.98;;
38529;SDS011;24301;54.332;48.386;2023-05-07T14:45:07;2.20;;;1.20;;
38529;SDS011;24301;54.332;48.386;2023-05-07T14:47:33;4.40;;;2.33;;
38529;SDS011;24301;54.332;48.386;2023-05-07T14:50:00;2.95;;;1.55;;
38529;SDS011;24301;54.332;48.386;2023-05-07T14:52:27;1.80;;;1.20;;
38529;SDS011;24301;54.332;48.386;2023-05-07T14:54:52;2.13;;;1.20;;
38529;SDS011;24301;54.332;48.386;2023-05-07T14:57:18;3.78;;;1.63;;
38529;SDS011;24301;54.332;48.386;2023-05-07T14:59:45;2.03;;;1.38;;
38529;SDS011;24301;54.332;48.386;2023-05-07T15:02:13;2.15;;;1.52;;
38529;SDS011;24301;54.332;48.386;2023-05-07T15:04:48;1.98;;;1.35;;
38529;SDS011;24301;54.332;48.386;2023-05-07T15:07:24;1.60;;;1.30;;